Time;durP1;ratioP1;P1;durP2;ratioP2;P2;SDS_P1;SDS_P2;PMS_P1;PMS_P2;Temp;Humidity;BMP_temperature;BMP_pressure;BME280_temperature;BME280_humidity;BME280_pressure;Samples;Min_cycle;Max_cycle;Signal;HPM_P1;HPM_P2
2023/10/28 00:00:32;;;;;;;3.88;2.13;;;;;;;-1.57;69.56;96799.13;6231817;28;20048;-67
2023/10/28 00:03:39;;;;;;;3.95;1.75;;;;;;;-1.68;69.81;96788.13;6234671;28;20107;-67
2023/10/28 00:06:43;;;;;;;2.10;1.63;;;;;;;-1.71;70.20;96783.03;6235171;28;20045;-68
2023/10/28 00:09:48;;;;;;;2.15;1.77;;;;;;;-1.72;69.89;96781.34;6231460;28;20178;-68
2023/10/28 00:12:57;;;;;;;2.22;2.03;;;;;;;-1.54;69.88;96775.84;6225037;28;20046;-67
2023/10/28 00:16:05;;;;;;;1.98;1.70;;;;;;;-1.78;70.27;96763.38;6226950;28;20037;-68
2023/10/28 00:19:07;;;;;;;2.55;1.90;;;;;;;-1.74;70.44;96749.56;6233421;28;20037;-68
2023/10/28 00:22:12;;;;;;;2.58;2.00;;;;;;;-1.74;70.66;96754.72;6236418;28;20084;-67
2023/10/28 00:25:22;;;;;;;1.40;1.27;;;;;;;-1.66;70.94;96758.00;6233209;28;20045;-67
2023/10/28 00:28:25;;;;;;;2.63;2.30;;;;;;;-1.70;70.97;96761.50;6233838;28;20056;-68
2023/10/28 00:31:29;;;;;;;2.47;1.60;;;;;;;-1.76;71.14;96749.56;6230767;28;20054;-69
2023/10/28 00:34:32;;;;;;;2.30;1.98;;;;;;;-1.56;70.34;96741.47;6234958;28;20045;-68
2023/10/28 00:37:37;;;;;;;3.45;2.10;;;;;;;-1.71;70.96;96742.59;6230855;28;20045;-68
2023/10/28 00:40:42;;;;;;;2.38;2.00;;;;;;;-1.52;70.56;96734.53;6227482;28;20049;-67
2023/10/28 00:43:48;;;;;;;2.58;1.95;;;;;;;-1.70;71.46;96738.28;6227548;28;20045;-67
2023/10/28 00:46:49;;;;;;;2.90;1.90;;;;;;;-1.68;71.21;96721.06;6232083;28;20045;-68
2023/10/28 00:49:54;;;;;;;2.33;2.00;;;;;;;-1.67;71.14;96707.28;6234677;28;20048;-67
2023/10/28 00:52:57;;;;;;;2.17;1.75;;;;;;;-1.69;71.79;96709.06;6243533;28;20133;-67
2023/10/28 00:56:01;;;;;;;4.03;1.60;;;;;;;-1.76;72.05;96710.88;6234527;28;20076;-67
2023/10/28 00:59:05;;;;;;;2.60;1.80;;;;;;;-1.67;72.41;96709.84;6235483;28;20056;-67
2023/10/28 01:02:11;;;;;;;2.17;1.80;;;;;;;-1.67;71.86;96709.84;6255563;28;20514;-67
2023/10/28 01:05:17;;;;;;;3.08;1.83;;;;;;;-1.61;71.98;96717.50;6236509;28;20343;-66
2023/10/28 01:08:21;;;;;;;3.15;2.13;;;;;;;-1.61;71.51;96699.44;6232116;28;20046;-67
2023/10/28 01:11:22;;;;;;;4.28;2.28;;;;;;;-1.59;72.38;96710.56;6230796;28;20049;-68
2023/10/28 01:14:29;;;;;;;2.70;2.10;;;;;;;-1.53;71.91;96702.69;6229558;28;20049;-67
2023/10/28 01:17:32;;;;;;;1.38;1.23;;;;;;;-1.45;71.55;96718.88;6235794;28;20456;-66
2023/10/28 01:20:40;;;;;;;5.65;2.38;;;;;;;-1.58;72.03;96712.28;6236073;28;20041;-68
2023/10/28 01:23:42;;;;;;;1.50;1.33;;;;;;;-1.47;72.16;96710.34;6230864;28;20045;-67
2023/10/28 01:26:43;;;;;;;2.78;1.90;;;;;;;-1.47;71.89;96692.28;6228454;28;20052;-68
2023/10/28 01:29:46;;;;;;;2.83;2.15;;;;;;;-1.48;72.08;96697.44;6229802;28;20045;-67
2023/10/28 01:32:54;;;;;;;4.00;2.13;;;;;;;-1.47;72.13;96696.56;6234080;28;20037;-68
2023/10/28 01:35:58;;;;;;;3.20;1.67;;;;;;;-1.51;72.29;96682.03;6228377;28;20642;-67
2023/10/28 01:39:03;;;;;;;3.20;1.92;;;;;;;-1.52;71.99;96680.34;6231052;28;20216;-67
2023/10/28 01:42:04;;;;;;;2.55;2.00;;;;;;;-1.49;72.06;96680.28;6232455;28;20128;-68
2023/10/28 01:45:10;;;;;;;2.40;2.20;;;;;;;-1.45;72.21;96672.44;6235166;28;20064;-68
2023/10/28 01:48:12;;;;;;;2.85;1.50;;;;;;;-1.41;71.96;96674.06;6233419;28;20457;-68
2023/10/28 01:51:14;;;;;;;2.83;2.20;;;;;;;-1.38;71.71;96655.94;6230462;28;20060;-67
2023/10/28 01:54:15;;;;;;;3.13;2.33;;;;;;;-1.45;72.00;96654.34;6225789;28;20500;-67
2023/10/28 01:57:22;;;;;;;2.22;2.00;;;;;;;-1.39;72.23;96656.84;6235807;28;20068;-67
2023/10/28 02:00:30;;;;;;;3.00;2.30;;;;;;;-1.37;72.31;96657.63;6239788;28;20041;-67
2023/10/28 02:03:37;;;;;;;3.03;2.15;;;;;;;-1.34;72.25;96651.56;6226979;28;20037;-67
2023/10/28 02:06:38;;;;;;;;;;;;;;;-1.28;72.25;96648.00;6239085;28;20722;-66
2023/10/28 02:09:42;;;;;;;2.60;2.13;;;;;;;-1.36;72.03;96638.69;6234168;28;19921;-65
2023/10/28 02:12:48;;;;;;;2.42;2.22;;;;;;;-1.29;72.27;96642.00;6225895;28;20049;-68
2023/10/28 02:15:49;;;;;;;;;;;;;;;-1.23;71.82;96631.53;6236805;28;20429;-67
2023/10/28 02:18:51;;;;;;;2.42;1.83;;;;;;;-1.23;71.63;96625.50;6239368;28;19921;-67
2023/10/28 02:21:54;;;;;;;4.47;2.55;;;;;;;-1.26;71.89;96620.44;6240632;28;20049;-67
2023/10/28 02:24:56;;;;;;;3.72;2.45;;;;;;;-1.23;71.41;96620.34;6239047;28;20125;-67
2023/10/28 02:27:57;;;;;;;3.92;2.97;;;;;;;-1.22;72.19;96615.16;6237873;28;20045;-67
2023/10/28 02:31:01;;;;;;;3.42;2.70;;;;;;;-1.17;71.45;96609.88;6239607;28;20048;-68
2023/10/28 02:34:08;;;;;;;3.28;2.70;;;;;;;-1.20;71.71;96604.78;6234289;28;20041;-68
2023/10/28 02:37:16;;;;;;;3.97;2.90;;;;;;;-1.21;71.56;96608.28;6233144;28;20045;-67
2023/10/28 02:40:18;;;;;;;5.20;2.92;;;;;;;-1.23;71.96;96599.69;6230528;28;20812;-67
2023/10/28 02:43:20;;;;;;;5.07;3.05;;;;;;;-1.20;71.51;96591.88;6237851;28;20037;-67
2023/10/28 02:46:25;;;;;;;2.88;2.20;;;;;;;-1.18;71.89;96587.53;6229070;28;20076;-67
2023/10/28 02:49:34;;;;;;;5.20;3.42;;;;;;;-1.25;71.89;96589.41;6235750;28;20492;-68
2023/10/28 02:52:38;;;;;;;6.95;3.58;;;;;;;-1.23;72.49;96582.47;6237317;28;20136;-67
2023/10/28 02:55:46;;;;;;;4.32;3.13;;;;;;;-1.22;71.94;96576.44;6240291;28;20409;-67
2023/10/28 02:58:53;;;;;;;5.45;3.85;;;;;;;-1.25;72.16;96580.81;6231661;28;20041;-67
2023/10/28 03:01:57;;;;;;;6.32;3.25;;;;;;;-1.20;71.78;96574.66;6233760;28;20050;-67
2023/10/28 03:05:05;;;;;;;6.35;3.75;;;;;;;-1.18;71.43;96572.91;6234131;28;20126;-68
2023/10/28 03:08:13;;;;;;;5.63;3.42;;;;;;;-1.25;72.46;96560.16;6237249;28;20492;-67
2023/10/28 03:11:18;;;;;;;4.93;3.20;;;;;;;-1.30;72.33;96567.16;6235077;28;20544;-67
2023/10/28 03:14:20;;;;;;;4.40;3.08;;;;;;;-1.29;72.44;96550.81;6237096;28;20072;-66
2023/10/28 03:17:21;;;;;;;6.88;4.68;;;;;;;-1.20;72.59;96563.50;6236761;28;20038;-67
2023/10/28 03:20:25;;;;;;;5.88;3.72;;;;;;;-1.24;72.27;96560.13;6229849;28;20041;-67
2023/10/28 03:23:29;;;;;;;3.88;3.45;;;;;;;-1.14;72.26;96564.19;6235792;28;20040;-67
2023/10/28 03:26:32;;;;;;;6.43;3.38;;;;;;;-1.05;71.67;96567.44;6239851;28;20056;-67
2023/10/28 03:29:33;;;;;;;3.55;2.63;;;;;;;-1.09;72.27;96560.66;6230911;28;20034;-67
2023/10/28 03:32:35;;;;;;;5.82;3.28;;;;;;;-1.08;72.09;96563.19;6235357;28;20169;-67
2023/10/28 03:35:39;;;;;;;4.20;3.10;;;;;;;-1.04;71.79;96554.50;6230945;28;20140;-70
2023/10/28 03:38:43;;;;;;;4.63;2.97;;;;;;;-1.04;72.03;96556.25;6230932;28;20037;-68
2023/10/28 03:41:49;;;;;;;;;;;;;;;-1.01;72.31;96556.16;6234907;28;20046;-69
2023/10/28 03:44:50;;;;;;;4.90;2.97;;;;;;;-1.00;71.95;96547.53;6235013;28;19917;-67
2023/10/28 03:47:55;;;;;;;12.70;6.22;;;;;;;-0.99;71.70;96542.34;6235308;28;20064;-67
2023/10/28 03:51:04;;;;;;;8.48;4.55;;;;;;;-0.89;71.84;96542.09;6237102;28;20052;-68
2023/10/28 03:54:07;;;;;;;6.10;3.47;;;;;;;-0.88;71.89;96543.78;6226553;28;20045;-67
2023/10/28 03:57:09;;;;;;;6.18;3.72;;;;;;;-0.81;71.92;96550.50;6231804;28;20045;-68
2023/10/28 04:00:13;;;;;;;4.63;3.13;;;;;;;-0.80;71.87;96552.19;6236040;28;20045;-68
2023/10/28 04:03:23;;;;;;;6.50;4.75;;;;;;;-0.80;72.21;96547.88;6232212;28;20037;-68
2023/10/28 04:06:25;;;;;;;4.38;3.22;;;;;;;-0.78;72.71;96548.69;6237046;28;20037;-67
2023/10/28 04:09:28;;;;;;;2.83;2.50;;;;;;;-0.74;72.49;96531.34;6230569;28;20060;-68
2023/10/28 04:12:36;;;;;;;5.28;3.17;;;;;;;-0.73;72.07;96533.91;6232922;28;20042;-68
2023/10/28 04:15:44;;;;;;;6.47;4.40;;;;;;;-0.72;72.04;96525.28;6244498;28;20176;-67
2023/10/28 04:18:48;;;;;;;11.38;6.28;;;;;;;-0.76;72.24;96518.50;6231962;28;20501;-67
2023/10/28 04:21:52;;;;;;;5.18;3.47;;;;;;;-0.70;71.95;96517.50;6233639;28;20156;-67
2023/10/28 04:24:59;;;;;;;6.55;4.22;;;;;;;-0.60;71.19;96513.75;6228297;28;20045;-67
2023/10/28 04:28:03;;;;;;;6.90;4.70;;;;;;;-0.60;71.58;96513.75;6235715;28;20033;-67
2023/10/28 04:31:08;;;;;;;6.47;4.00;;;;;;;-0.56;72.00;96512.81;6227468;28;20052;-67
2023/10/28 04:34:09;;;;;;;5.35;3.50;;;;;;;-0.50;72.29;96520.38;6233075;28;20800;-68
2023/10/28 04:37:11;;;;;;;5.53;3.25;;;;;;;-0.53;72.33;96509.28;6230619;28;20053;-67
2023/10/28 04:40:16;;;;;;;5.38;3.22;;;;;;;-0.52;71.25;96501.47;6232265;28;20109;-68
2023/10/28 04:43:19;;;;;;;8.95;4.85;;;;;;;-0.44;71.87;96510.78;6238001;28;20128;-68
2023/10/28 04:46:23;;;;;;;4.38;3.65;;;;;;;-0.41;72.45;96502.94;6231644;28;20034;-68
2023/10/28 04:49:29;;;;;;;5.53;3.17;;;;;;;-0.37;72.23;96501.94;6236263;28;20041;-67
2023/10/28 04:52:36;;;;;;;6.50;3.83;;;;;;;-0.35;71.54;96500.19;6231974;28;20049;-68
2023/10/28 04:55:44;;;;;;;10.85;6.57;;;;;;;-0.31;71.61;96491.44;6235859;28;20193;-68
2023/10/28 04:58:45;;;;;;;5.72;3.53;;;;;;;-0.24;72.04;96486.06;6237097;28;20042;-67
2023/10/28 05:01:47;;;;;;;9.30;5.80;;;;;;;-0.22;71.41;96477.44;6230290;28;20049;-67
2023/10/28 05:04:53;;;;;;;5.45;4.07;;;;;;;-0.19;72.18;96474.75;6236102;28;20045;-68
2023/10/28 05:07:59;;;;;;;4.35;3.33;;;;;;;-0.17;71.33;96468.66;6235506;28;20037;-68
2023/10/28 05:11:03;;;;;;;5.93;3.97;;;;;;;-0.13;71.73;96462.47;6230146;28;20046;-68
2023/10/28 05:14:09;;;;;;;5.07;3.42;;;;;;;-0.16;71.50;96441.88;6233764;28;20485;-68
2023/10/28 05:17:15;;;;;;;4.85;3.38;;;;;;;-0.09;71.43;96453.72;6237685;28;20053;-68
2023/10/28 05:20:21;;;;;;;25.27;13.40;;;;;;;-0.09;71.06;96453.72;6251428;28;20049;-67
2023/10/28 05:23:25;;;;;;;16.65;8.23;;;;;;;-0.09;71.31;96447.72;6230522;28;20072;-68
2023/10/28 05:26:31;;;;;;;8.98;5.47;;;;;;;-0.02;71.59;96444.06;6238180;28;20477;-67
2023/10/28 05:29:36;;;;;;;5.80;3.67;;;;;;;0.05;71.08;96455.06;6237464;28;20037;-67
2023/10/28 05:32:43;;;;;;;5.68;4.00;;;;;;;0.03;71.24;96441.31;6233667;28;20057;-68
2023/10/28 05:35:44;;;;;;;5.03;3.67;;;;;;;0.08;70.97;96445.47;6232792;28;20093;-68
2023/10/28 05:38:54;;;;;;;5.05;3.90;;;;;;;0.13;71.09;96442.75;6237157;28;20037;-68
2023/10/28 05:41:58;;;;;;;6.13;4.30;;;;;;;0.20;71.02;96426.16;6237151;28;20037;-67
2023/10/28 05:45:03;;;;;;;8.10;4.65;;;;;;;0.31;70.32;96434.44;6230777;28;20060;-67
2023/10/28 05:48:06;;;;;;;7.30;4.25;;;;;;;0.36;70.79;96429.94;6237471;28;20053;-69
2023/10/28 05:51:09;;;;;;;12.60;7.78;;;;;;;0.42;70.61;96440.09;6236442;28;20033;-67
2023/10/28 05:54:19;;;;;;;11.18;6.07;;;;;;;0.44;70.33;96427.94;6236028;28;20046;-68
2023/10/28 05:57:27;;;;;;;10.48;5.60;;;;;;;0.46;70.64;96429.66;6238088;28;20057;-68
2023/10/28 06:00:31;;;;;;;15.05;5.85;;;;;;;0.48;70.77;96422.69;6227290;28;20045;-69
2023/10/28 06:03:38;;;;;;;15.18;5.50;;;;;;;0.56;70.79;96418.09;6236313;28;20049;-68
2023/10/28 06:06:46;;;;;;;18.02;7.05;;;;;;;0.60;70.34;96422.31;6241549;28;20049;-67
2023/10/28 06:09:50;;;;;;;17.77;5.97;;;;;;;0.65;69.92;96415.19;6234606;28;20037;-68
2023/10/28 06:12:54;;;;;;;18.00;5.50;;;;;;;0.70;70.46;96408.13;6236587;28;20429;-67
2023/10/28 06:15:58;;;;;;;11.35;4.82;;;;;;;0.77;70.16;96401.88;6235820;28;20037;-67
2023/10/28 06:19:02;;;;;;;20.92;5.72;;;;;;;0.82;69.76;96402.56;6242916;28;20503;-67
2023/10/28 06:22:03;;;;;;;;;;;;;;;0.87;69.73;96395.47;6229774;28;20099;-67
2023/10/28 06:25:05;;;;;;;15.32;6.88;;;;;;;0.71;69.52;96373.59;6236862;28;19924;-72
2023/10/28 06:28:10;;;;;;;;;;;;;;;0.85;69.26;96401.59;6235644;28;20619;-68
2023/10/28 06:31:18;;;;;;;21.90;5.95;;;;;;;0.78;69.45;96395.78;6234717;28;19943;-69
2023/10/28 06:34:27;;;;;;;20.50;6.25;;;;;;;0.78;70.11;96390.59;6231719;28;20042;-68
2023/10/28 06:37:33;;;;;;;24.00;7.20;;;;;;;0.89;69.96;96388.50;6232924;28;20045;-69
2023/10/28 06:40:38;;;;;;;23.95;7.07;;;;;;;0.94;69.39;96379.72;6232936;28;20120;-69
2023/10/28 06:43:39;;;;;;;22.42;7.70;;;;;;;1.05;69.19;96387.97;6236933;28;20038;-68
2023/10/28 06:46:44;;;;;;;27.65;8.57;;;;;;;0.99;70.03;96388.16;6233796;28;20149;-68
2023/10/28 06:49:48;;;;;;;22.60;7.05;;;;;;;1.03;69.46;96390.59;6241698;28;20037;-69
2023/10/28 06:52:51;;;;;;;25.52;6.50;;;;;;;1.08;69.41;96387.88;6241723;28;20037;-68
2023/10/28 06:55:56;;;;;;;19.70;6.75;;;;;;;1.15;69.29;96383.31;6235737;28;20511;-69
2023/10/28 06:59:06;;;;;;;24.42;9.18;;;;;;;1.13;69.55;96370.38;6228212;28;20398;-69
2023/10/28 07:02:09;;;;;;;27.50;9.75;;;;;;;1.21;69.73;96372.72;6226455;28;20057;-69
2023/10/28 07:05:10;;;;;;;10.85;6.30;;;;;;;1.32;69.58;96368.81;6236672;28;20547;-68
2023/10/28 07:08:15;;;;;;;30.15;9.15;;;;;;;1.39;69.55;96368.59;6238333;28;20037;-69
2023/10/28 07:11:23;;;;;;;23.15;10.00;;;;;;;1.48;69.25;96365.69;6232647;28;20553;-69
2023/10/28 07:14:25;;;;;;;;;;;;;;;1.55;69.26;96361.94;6234552;28;20045;-70
2023/10/28 07:17:28;;;;;;;26.48;9.35;;;;;;;1.54;69.57;96345.56;6235141;28;19924;-68
2023/10/28 07:20:32;;;;;;;16.55;6.78;;;;;;;1.54;69.55;96350.75;6229387;28;20136;-70
2023/10/28 07:23:38;;;;;;;18.35;7.10;;;;;;;1.53;69.74;96356.84;6235316;28;20033;-68
2023/10/28 07:26:51;;;;;;;23.70;6.65;;;;;;;1.56;70.01;96354.13;6238880;28;20033;-67
2023/10/28 07:30:54;;;;;;;;;;;;;;;;;;;;;
2023/10/28 07:34:29;;;;;;;29.15;10.05;;;;;;;1.53;70.98;96337.84;6236580;28;20046;-75
2023/10/28 07:38:05;;;;;;;15.98;5.97;;;;;;;1.51;71.45;96313.72;6231339;28;20069;-74
2023/10/28 07:41:21;;;;;;;17.23;5.85;;;;;;;1.32;71.50;96288.47;6192813;28;20131;-69
2023/10/28 07:44:31;;;;;;;16.05;4.95;;;;;;;1.56;72.14;96328.19;6216800;28;20524;-68
2023/10/28 07:47:39;;;;;;;14.23;5.28;;;;;;;1.53;72.14;96328.31;6213163;28;20037;-69
2023/10/28 07:50:43;;;;;;;12.60;4.03;;;;;;;1.52;72.50;96330.94;6211366;28;20183;-73
2023/10/28 07:53:54;;;;;;;12.02;4.38;;;;;;;1.47;72.74;96317.31;6215538;28;20537;-73
2023/10/28 07:56:58;;;;;;;8.93;3.88;;;;;;;1.40;73.15;96316.72;6193979;28;20053;-72
2023/10/28 08:00:08;;;;;;;10.07;4.03;;;;;;;1.32;73.04;96305.78;6195264;28;20042;-69
2023/10/28 08:03:16;;;;;;;6.38;3.72;;;;;;;1.35;73.79;96303.91;6197394;28;20042;-73
2023/10/28 08:06:24;;;;;;;9.85;3.70;;;;;;;1.40;73.62;96311.53;6199510;28;20177;-73
2023/10/28 08:09:28;;;;;;;11.23;3.40;;;;;;;1.22;73.75;96292.34;6195261;28;20056;-73
2023/10/28 08:12:34;;;;;;;13.55;5.80;;;;;;;1.24;73.98;96290.50;6195063;28;20042;-73
2023/10/28 08:15:39;;;;;;;8.15;3.90;;;;;;;1.19;74.01;96292.44;6197000;28;20054;-73
2023/10/28 08:18:46;;;;;;;10.43;3.85;;;;;;;1.25;74.42;96287.03;6196002;28;20774;-73
2023/10/28 08:21:50;;;;;;;11.05;4.47;;;;;;;1.26;74.43;96278.34;6191164;28;20042;-73
2023/10/28 08:24:59;;;;;;;7.50;3.90;;;;;;;1.31;74.04;96281.63;6191592;28;20043;-74
2023/10/28 08:28:02;;;;;;;9.40;3.85;;;;;;;1.25;74.19;96281.84;6195478;28;20054;-73
2023/10/28 08:31:13;;;;;;;6.85;4.38;;;;;;;1.25;74.86;96281.00;6190299;28;20045;-74
2023/10/28 08:34:24;;;;;;;7.55;3.92;;;;;;;1.28;74.45;96279.13;6191943;28;20042;-73
2023/10/28 08:37:31;;;;;;;9.57;4.25;;;;;;;1.21;74.64;96263.88;6183322;28;20060;-74
2023/10/28 08:40:36;;;;;;;6.43;4.05;;;;;;;1.31;74.62;96279.03;6189584;28;20189;-73
2023/10/28 08:43:37;;;;;;;9.45;3.92;;;;;;;1.42;74.64;96270.00;6191335;28;20177;-73
2023/10/28 08:46:49;;;;;;;10.95;5.32;;;;;;;1.54;74.09;96264.34;6190613;28;20084;-72
2023/10/28 08:49:58;;;;;;;7.75;3.40;;;;;;;1.63;74.23;96256.19;6188816;28;20042;-72
2023/10/28 08:53:03;;;;;;;8.02;3.55;;;;;;;1.80;73.63;96264.13;6189146;28;20177;-73
2023/10/28 08:56:07;;;;;;;12.65;6.05;;;;;;;1.83;73.58;96264.94;6209714;28;20046;-74
2023/10/28 08:59:10;;;;;;;6.95;4.22;;;;;;;1.92;73.44;96256.78;6214535;28;20088;-75
2023/10/28 09:02:12;;;;;;;7.07;4.20;;;;;;;2.01;73.42;96257.25;6212092;28;20033;-73
2023/10/28 09:05:20;;;;;;;4.38;2.58;;;;;;;2.15;73.13;96254.09;6219141;28;20049;-73
2023/10/28 09:08:27;;;;;;;7.20;3.97;;;;;;;2.31;72.67;96250.84;6220811;28;20046;-73
2023/10/28 09:11:31;;;;;;;5.10;3.60;;;;;;;2.44;72.42;96245.09;6219533;28;20030;-72
2023/10/28 09:14:35;;;;;;;5.13;2.78;;;;;;;2.62;72.02;96243.44;6220429;28;20477;-73
2023/10/28 09:17:39;;;;;;;8.00;4.93;;;;;;;2.79;71.88;96234.06;6219873;28;20536;-74
2023/10/28 09:20:43;;;;;;;4.35;3.20;;;;;;;3.00;71.49;96237.44;6217868;28;20045;-73
2023/10/28 09:23:51;;;;;;;3.90;2.60;;;;;;;3.03;71.17;96238.19;6219510;28;20131;-73
2023/10/28 09:26:52;;;;;;;2.63;2.38;;;;;;;3.03;70.74;96240.78;6218568;28;20045;-73
2023/10/28 09:30:06;;;;;;;4.00;3.03;;;;;;;2.94;70.92;96228.16;6218675;28;20042;-73
2023/10/28 09:33:17;;;;;;;4.15;2.92;;;;;;;2.81;70.98;96234.84;6217020;28;20546;-73
2023/10/28 09:36:23;;;;;;;3.13;2.60;;;;;;;2.65;71.10;96232.06;6218691;28;20049;-73
2023/10/28 09:39:31;;;;;;;3.88;2.80;;;;;;;2.60;71.31;96240.06;6219935;28;20042;-73
2023/10/28 09:42:34;;;;;;;4.97;3.70;;;;;;;2.53;71.75;96223.06;6201765;28;20058;-73
2023/10/28 09:45:37;;;;;;;3.75;2.58;;;;;;;2.60;71.69;96229.66;6216511;28;20052;-75
2023/10/28 09:48:39;;;;;;;3.13;2.40;;;;;;;2.57;71.53;96228.97;6217920;28;20124;-74
2023/10/28 09:51:42;;;;;;;4.60;3.08;;;;;;;2.56;71.49;96220.34;6219227;28;20532;-73
2023/10/28 09:54:49;;;;;;;2.60;2.40;;;;;;;2.53;71.80;96223.06;6217557;28;20285;-72
2023/10/28 09:58:02;;;;;;;4.43;2.72;;;;;;;2.58;71.81;96226.31;6221362;28;20049;-70
2023/10/28 10:01:29;;;;;;;5.32;3.35;;;;;;;2.57;71.80;96228.97;6219579;28;20046;-69
2023/10/28 10:04:51;;;;;;;6.22;4.18;;;;;;;2.50;72.08;96223.19;6219621;28;20484;-70
2023/10/28 10:07:54;;;;;;;3.80;2.90;;;;;;;2.39;71.94;96225.41;6219858;28;20054;-70
2023/10/28 10:11:01;;;;;;;4.68;3.22;;;;;;;2.42;72.05;96230.47;6218297;28;20038;-73
2023/10/28 10:14:10;;;;;;;5.07;2.67;;;;;;;2.44;72.19;96228.66;6218876;28;20061;-71
2023/10/28 10:17:18;;;;;;;3.55;2.45;;;;;;;2.42;71.81;96225.28;6219079;28;20076;-70
2023/10/28 10:20:28;;;;;;;3.63;2.97;;;;;;;2.49;72.13;96216.28;6219187;28;20155;-70
2023/10/28 10:23:45;;;;;;;4.05;2.70;;;;;;;2.70;72.09;96207.59;6217144;28;20425;-68
2023/10/28 10:26:57;;;;;;;5.85;2.95;;;;;;;2.77;71.55;96205.53;6218369;28;20513;-69
2023/10/28 10:30:11;;;;;;;2.85;2.65;;;;;;;2.85;71.47;96198.25;6214092;28;20049;-69
2023/10/28 10:33:27;;;;;;;3.65;2.67;;;;;;;2.94;71.43;96197.00;6217993;28;20049;-71
2023/10/28 10:36:42;;;;;;;3.97;2.90;;;;;;;2.96;71.52;96197.78;6219294;28;20069;-69
2023/10/28 10:39:48;;;;;;;3.17;2.53;;;;;;;2.89;71.18;96192.03;6217808;28;20078;-64
2023/10/28 10:42:50;;;;;;;4.40;3.28;;;;;;;2.87;71.39;96195.59;6215688;28;20053;-64
2023/10/28 10:45:57;;;;;;;5.20;2.67;;;;;;;2.81;71.46;96190.69;6218361;28;20517;-65
2023/10/28 10:49:09;;;;;;;2.72;2.45;;;;;;;2.79;71.71;96192.50;6218592;28;20048;-71
2023/10/28 10:52:10;;;;;;;2.92;2.67;;;;;;;2.74;71.34;96194.44;6219015;28;20037;-70
2023/10/28 10:55:28;;;;;;;3.03;2.33;;;;;;;2.64;71.53;96194.88;6219113;28;20069;-69
2023/10/28 10:58:32;;;;;;;3.10;2.80;;;;;;;2.55;71.78;96195.28;6218100;28;20046;-69
2023/10/28 11:01:38;;;;;;;3.42;2.53;;;;;;;2.52;71.75;96187.63;6218253;28;20045;-67
2023/10/28 11:04:40;;;;;;;4.45;3.40;;;;;;;2.37;71.72;96180.50;6216978;28;20045;-67
2023/10/28 11:07:45;;;;;;;3.65;2.65;;;;;;;2.32;72.18;96195.41;6216161;28;20041;-69
2023/10/28 11:10:47;;;;;;;3.90;2.80;;;;;;;2.20;72.05;96195.03;6207524;28;20466;-67
2023/10/28 11:13:51;;;;;;;4.32;2.58;;;;;;;2.12;72.25;96186.72;6215188;28;20080;-69
2023/10/28 11:16:53;;;;;;;3.38;2.80;;;;;;;2.07;72.49;96196.47;6216536;28;20132;-68
2023/10/28 11:19:57;;;;;;;4.55;3.20;;;;;;;2.02;73.13;96190.63;6217031;28;20092;-69
2023/10/28 11:23:00;;;;;;;;;;;;;;;2.01;72.75;96194.16;6217689;28;20517;-68
2023/10/28 11:26:04;;;;;;;3.10;2.75;;;;;;;1.93;72.72;96197.06;6199642;28;19922;-68
2023/10/28 11:29:14;;;;;;;3.03;2.42;;;;;;;1.93;72.77;96196.22;6218375;28;20025;-69
2023/10/28 11:32:19;;;;;;;4.28;3.40;;;;;;;1.96;73.25;96198.69;6217886;28;20049;-68
2023/10/28 11:35:21;;;;;;;3.75;3.13;;;;;;;1.94;73.38;96203.09;6216881;28;20061;-69
2023/10/28 11:38:25;;;;;;;4.38;2.63;;;;;;;1.90;73.45;96201.53;6217457;28;20137;-69
2023/10/28 11:41:31;;;;;;;4.03;2.72;;;;;;;1.88;73.35;96195.56;6217746;28;20042;-69
2023/10/28 11:44:35;;;;;;;3.63;2.60;;;;;;;1.85;73.38;96187.91;6180431;28;20081;-69
2023/10/28 11:47:41;;;;;;;3.75;2.70;;;;;;;1.76;73.56;96179.59;6218173;28;20497;-69
2023/10/28 11:50:48;;;;;;;3.85;2.45;;;;;;;1.73;73.61;96184.06;6218012;28;20520;-69
2023/10/28 11:53:53;;;;;;;4.40;2.72;;;;;;;1.68;73.39;96186.84;6216734;28;20053;-69
2023/10/28 11:56:57;;;;;;;4.20;3.10;;;;;;;1.61;73.17;96190.56;6217081;28;20045;-68
2023/10/28 12:00:04;;;;;;;5.75;3.00;;;;;;;1.48;73.49;96195.41;6225988;28;20038;-69
2023/10/28 12:03:11;;;;;;;4.07;3.03;;;;;;;1.47;73.83;96195.47;6217297;28;20042;-68
2023/10/28 12:06:12;;;;;;;4.80;3.58;;;;;;;1.43;74.00;96188.72;6216643;28;20049;-69
2023/10/28 12:09:14;;;;;;;5.22;3.00;;;;;;;1.41;73.91;96198.31;6215846;28;20053;-70
2023/10/28 12:12:28;;;;;;;4.25;3.20;;;;;;;1.34;74.22;96188.19;6216997;28;20053;-70
2023/10/28 12:15:44;;;;;;;6.57;4.55;;;;;;;1.34;74.39;96202.91;6217072;28;20041;-69
2023/10/28 12:18:51;;;;;;;4.35;3.15;;;;;;;1.32;75.06;96213.31;6215784;28;20167;-69
2023/10/28 12:21:58;;;;;;;3.35;2.97;;;;;;;1.29;74.72;96190.09;6216872;28;20046;-69
2023/10/28 12:25:03;;;;;;;4.28;2.95;;;;;;;1.29;74.69;96190.09;6216758;28;20057;-71
2023/10/28 12:28:12;;;;;;;4.63;2.95;;;;;;;1.29;74.54;96205.66;6216170;28;20046;-69
2023/10/28 12:31:22;;;;;;;5.30;3.10;;;;;;;1.27;74.69;96194.50;6216941;28;20061;-69
2023/10/28 12:34:26;;;;;;;4.50;3.15;;;;;;;1.28;75.17;96182.41;6216100;28;20041;-69
2023/10/28 12:37:27;;;;;;;;;;;;;;;1.29;74.91;96195.28;6216018;28;20069;-68
2023/10/28 12:40:36;;;;;;;5.15;3.50;;;;;;;1.25;74.66;96201.50;6216570;28;19921;-69
2023/10/28 12:43:43;;;;;;;12.98;7.25;;;;;;;1.24;74.48;96192.03;6216681;28;20171;-69
2023/10/28 12:46:47;;;;;;;10.05;6.68;;;;;;;1.28;74.57;96209.16;6216930;28;20073;-69
2023/10/28 12:49:52;;;;;;;6.18;3.90;;;;;;;1.29;75.06;96210.84;6214635;28;20116;-69
2023/10/28 12:52:57;;;;;;;5.30;3.40;;;;;;;1.29;75.04;96210.84;6215859;28;20616;-68
2023/10/28 12:56:02;;;;;;;4.78;3.20;;;;;;;1.34;75.14;96208.91;6214598;28;20053;-69
2023/10/28 12:59:09;;;;;;;5.78;4.60;;;;;;;1.33;74.82;96206.38;6216039;28;20535;-69
2023/10/28 13:02:10;;;;;;;2.65;2.38;;;;;;;1.34;74.52;96208.91;6214941;28;20046;-69
2023/10/28 13:05:14;;;;;;;7.40;3.50;;;;;;;1.31;74.94;96203.84;6215788;28;20468;-69
2023/10/28 13:08:21;;;;;;;3.72;3.13;;;;;;;1.30;75.16;96198.72;6216137;28;20493;-68
2023/10/28 13:11:23;;;;;;;7.00;3.50;;;;;;;1.28;74.73;96198.78;6216019;28;20053;-69
2023/10/28 13:14:26;;;;;;;6.95;4.03;;;;;;;1.24;75.05;96197.22;6215589;28;20517;-69
2023/10/28 13:17:30;;;;;;;6.35;3.05;;;;;;;1.23;75.33;96208.50;6215274;28;20049;-69
2023/10/28 13:20:37;;;;;;;6.07;2.85;;;;;;;1.27;75.15;96206.63;6209659;28;20460;-68
2023/10/28 13:23:43;;;;;;;8.20;3.92;;;;;;;1.24;75.25;96207.56;6215143;28;20460;-68
2023/10/28 13:26:47;;;;;;;8.05;3.65;;;;;;;1.20;75.53;96200.00;6216508;28;20038;-69
2023/10/28 13:29:52;;;;;;;12.43;5.97;;;;;;;1.18;75.13;96215.59;6215918;28;20049;-69
2023/10/28 13:32:58;;;;;;;12.55;4.68;;;;;;;1.08;75.29;96203.91;6230528;28;20081;-69
2023/10/28 13:36:02;;;;;;;;;;;;;;;1.18;75.34;96218.19;6215215;28;20066;-68
2023/10/28 13:39:04;;;;;;;7.83;3.43;;;;;;;1.09;75.10;96213.34;6215804;28;19922;-69
2023/10/28 13:42:06;;;;;;;6.20;2.83;;;;;;;1.05;75.37;96211.81;6215587;28;20045;-69
2023/10/28 13:45:12;;;;;;;7.90;3.00;;;;;;;1.07;75.67;96220.34;6215208;28;20038;-68
2023/10/28 13:48:17;;;;;;;6.32;3.15;;;;;;;1.01;75.68;96205.03;6215929;28;20042;-69
2023/10/28 13:51:26;;;;;;;4.50;2.95;;;;;;;1.02;75.98;96222.25;6220499;28;20044;-69
2023/10/28 13:54:33;;;;;;;4.75;3.53;;;;;;;0.98;76.63;96215.50;6219533;28;20057;-68
2023/10/28 13:57:37;;;;;;;5.80;3.40;;;;;;;1.07;76.57;96225.53;6219427;28;20149;-69
2023/10/28 14:00:41;;;;;;;3.35;2.35;;;;;;;1.03;76.63;96229.97;6215716;28;20058;-68
2023/10/28 14:03:42;;;;;;;7.15;3.65;;;;;;;1.03;77.01;96234.31;6219756;28;20125;-69
2023/10/28 14:06:51;;;;;;;11.90;5.32;;;;;;;1.03;76.56;96237.75;6219147;28;20033;-68
2023/10/28 14:09:57;;;;;;;12.48;6.55;;;;;;;1.05;76.75;96235.13;6213618;28;20582;-69
2023/10/28 14:12:59;;;;;;;;;;;;;;;1.05;77.71;96235.13;6220199;28;20062;-69
2023/10/28 14:16:03;;;;;;;8.73;4.72;;;;;;;0.99;77.08;96232.72;6219153;28;19921;-69
2023/10/28 14:19:10;;;;;;;8.25;5.05;;;;;;;1.01;77.13;96225.75;6217263;28;20076;-69
2023/10/28 14:22:13;;;;;;;9.00;4.75;;;;;;;1.02;77.18;96227.44;6218944;28;20049;-69
2023/10/28 14:25:17;;;;;;;8.77;4.85;;;;;;;0.96;77.63;96232.84;6215598;28;20054;-76
2023/10/28 14:28:23;;;;;;;10.02;4.78;;;;;;;0.98;77.33;96236.22;6216824;28;20038;-66
2023/10/28 14:31:30;;;;;;;11.48;4.07;;;;;;;1.00;77.50;96224.91;6218072;28;20042;-65
2023/10/28 14:34:35;;;;;;;7.50;4.30;;;;;;;0.92;77.84;96221.75;6217566;28;20041;-71
2023/10/28 14:37:39;;;;;;;10.95;5.43;;;;;;;0.94;78.16;96234.69;6215236;28;20049;-74
2023/10/28 14:40:46;;;;;;;8.57;4.40;;;;;;;0.87;77.55;96206.38;6219203;28;20100;-70
2023/10/28 14:43:55;;;;;;;7.05;3.28;;;;;;;0.97;78.36;96213.84;6217377;28;20038;-71